sensor_id;sensor_type;location;lat;lon;timestamp;pressure;altitude;pressure_sealevel;temperature;humidity
4398;BME280;2213;49.720;7.296;2023-06-04T00:00:24;98276.41;;;15.40;83.01
4398;BME280;2213;49.720;7.296;2023-06-04T00:02:54;98285.56;;;15.37;83.61
4398;BME280;2213;49.720;7.296;2023-06-04T00:05:23;98273.00;;;15.33;83.74
4398;BME280;2213;49.720;7.296;2023-06-04T00:07:53;98276.66;;;15.32;84.03
4398;BME280;2213;49.720;7.296;2023-06-04T00:10:22;98277.28;;;15.27;84.32
4398;BME280;2213;49.720;7.296;2023-06-04T00:12:50;98269.38;;;15.27;83.96
4398;BME280;2213;49.720;7.296;2023-06-04T00:15:21;98271.84;;;15.22;83.64
4398;BME280;2213;49.720;7.296;2023-06-04T00:17:50;98276.16;;;15.17;84.22
4398;BME280;2213;49.720;7.296;2023-06-04T00:20:19;98273.69;;;15.15;84.13
4398;BME280;2213;49.720;7.296;2023-06-04T00:22:47;98272.50;;;15.11;84.29
4398;BME280;2213;49.720;7.296;2023-06-04T00:25:16;98279.19;;;15.07;85.01
4398;BME280;2213;49.720;7.296;2023-06-04T00:27:45;98271.13;;;15.02;84.87
4398;BME280;2213;49.720;7.296;2023-06-04T00:30:15;98278.84;;;14.97;85.29
4398;BME280;2213;49.720;7.296;2023-06-04T00:32:45;98276.25;;;14.90;85.91
4398;BME280;2213;49.720;7.296;2023-06-04T00:35:15;98280.09;;;14.88;85.71
4398;BME280;2213;49.720;7.296;2023-06-04T00:37:44;98279.72;;;14.84;85.97
4398;BME280;2213;49.720;7.296;2023-06-04T00:40:12;98282.78;;;14.81;86.01
4398;BME280;2213;49.720;7.296;2023-06-04T00:42:42;98278.13;;;14.77;86.32
4398;BME280;2213;49.720;7.296;2023-06-04T00:45:13;98278.13;;;14.70;86.59
4398;BME280;2213;49.720;7.296;2023-06-04T00:47:44;98285.06;;;14.65;86.75
4398;BME280;2213;49.720;7.296;2023-06-04T00:50:14;98278.56;;;14.60;87.02
4398;BME280;2213;49.720;7.296;2023-06-04T00:52:43;98276.94;;;14.59;87.09
4398;BME280;2213;49.720;7.296;2023-06-04T00:55:12;98283.88;;;14.54;87.08
4398;BME280;2213;49.720;7.296;2023-06-04T00:57:41;98279.22;;;14.49;87.37
4398;BME280;2213;49.720;7.296;2023-06-04T01:00:12;98278.00;;;14.45;87.48
4398;BME280;2213;49.720;7.296;2023-06-04T01:02:44;98279.41;;;14.41;87.48
4398;BME280;2213;49.720;7.296;2023-06-04T01:05:26;98279.84;;;14.38;87.62
4398;BME280;2213;49.720;7.296;2023-06-04T01:08:01;98277.41;;;14.37;87.80
4398;BME280;2213;49.720;7.296;2023-06-04T01:10:30;98279.00;;;14.31;87.97
4398;BME280;2213;49.720;7.296;2023-06-04T01:12:59;98279.41;;;14.28;88.04
4398;BME280;2213;49.720;7.296;2023-06-04T01:15:28;98279.00;;;14.25;88.35
4398;BME280;2213;49.720;7.296;2023-06-04T01:18:00;98280.25;;;14.22;88.41
4398;BME280;2213;49.720;7.296;2023-06-04T01:20:37;98272.94;;;14.18;88.36
4398;BME280;2213;49.720;7.296;2023-06-04T01:23:52;98269.91;;;14.14;88.75
4398;BME280;2213;49.720;7.296;2023-06-04T01:26:28;98271.34;;;14.10;88.68
4398;BME280;2213;49.720;7.296;2023-06-04T01:28:58;98273.78;;;14.05;88.61
4398;BME280;2213;49.720;7.296;2023-06-04T01:31:28;98276.00;;;14.01;89.17
4398;BME280;2213;49.720;7.296;2023-06-04T01:34:01;98281.25;;;14.01;89.00
4398;BME280;2213;49.720;7.296;2023-06-04T01:36:30;98276.19;;;14.00;89.48
4398;BME280;2213;49.720;7.296;2023-06-04T01:38:59;98275.78;;;13.96;89.31
4398;BME280;2213;49.720;7.296;2023-06-04T01:41:28;98275.38;;;13.93;89.53
4398;BME280;2213;49.720;7.296;2023-06-04T01:43:57;98278.25;;;13.91;89.57
4398;BME280;2213;49.720;7.296;2023-06-04T01:46:27;98287.53;;;13.87;89.51
4398;BME280;2213;49.720;7.296;2023-06-04T01:48:55;98280.25;;;13.83;89.83
4398;BME280;2213;49.720;7.296;2023-06-04T01:51:25;98273.16;;;13.77;90.14
4398;BME280;2213;49.720;7.296;2023-06-04T01:53:54;98269.50;;;13.71;90.71
4398;BME280;2213;49.720;7.296;2023-06-04T01:56:23;98274.97;;;13.70;90.22
4398;BME280;2213;49.720;7.296;2023-06-04T01:58:53;98275.38;;;13.67;90.85
4398;BME280;2213;49.720;7.296;2023-06-04T02:01:23;98284.09;;;13.67;90.85
4398;BME280;2213;49.720;7.296;2023-06-04T02:03:54;98274.56;;;13.59;90.64
4398;BME280;2213;49.720;7.296;2023-06-04T02:06:24;98275.97;;;13.55;91.19
4398;BME280;2213;49.720;7.296;2023-06-04T02:08:57;98277.38;;;13.51;91.32
4398;BME280;2213;49.720;7.296;2023-06-04T02:11:28;98273.13;;;13.50;91.62
4398;BME280;2213;49.720;7.296;2023-06-04T02:13:57;98269.31;;;13.46;91.33
4398;BME280;2213;49.720;7.296;2023-06-04T02:16:26;98267.44;;;13.40;91.48
4398;BME280;2213;49.720;7.296;2023-06-04T02:18:55;98278.56;;;13.36;91.80
4398;BME280;2213;49.720;7.296;2023-06-04T02:21:27;98272.91;;;13.32;91.70
4398;BME280;2213;49.720;7.296;2023-06-04T02:23:56;98274.09;;;13.30;92.12
4398;BME280;2213;49.720;7.296;2023-06-04T02:26:24;98275.31;;;13.27;92.57
4398;BME280;2213;49.720;7.296;2023-06-04T02:28:53;98279.75;;;13.27;92.28
4398;BME280;2213;49.720;7.296;2023-06-04T02:31:22;98275.69;;;13.24;92.30
4398;BME280;2213;49.720;7.296;2023-06-04T02:33:51;98281.53;;;13.20;92.49
4398;BME280;2213;49.720;7.296;2023-06-04T02:36:20;98283.75;;;13.16;92.63
4398;BME280;2213;49.720;7.296;2023-06-04T02:38:50;98275.88;;;13.16;93.50
4398;BME280;2213;49.720;7.296;2023-06-04T02:41:19;98282.16;;;13.15;92.81
4398;BME280;2213;49.720;7.296;2023-06-04T02:43:48;98283.34;;;13.13;92.80
4398;BME280;2213;49.720;7.296;2023-06-04T02:46:17;98280.09;;;13.10;93.04
4398;BME280;2213;49.720;7.296;2023-06-04T02:48:45;98272.78;;;13.06;92.38
4398;BME280;2213;49.720;7.296;2023-06-04T02:51:16;98276.81;;;13.02;92.99
4398;BME280;2213;49.720;7.296;2023-06-04T02:53:44;98271.53;;;12.95;93.45
4398;BME280;2213;49.720;7.296;2023-06-04T02:56:14;98274.56;;;12.92;93.25
4398;BME280;2213;49.720;7.296;2023-06-04T02:58:49;98274.75;;;12.91;93.51
4398;BME280;2213;49.720;7.296;2023-06-04T03:01:19;98275.94;;;12.88;93.60
4398;BME280;2213;49.720;7.296;2023-06-04T03:03:49;98281.59;;;12.85;94.09
4398;BME280;2213;49.720;7.296;2023-06-04T03:06:19;98281.56;;;12.79;93.63
4398;BME280;2213;49.720;7.296;2023-06-04T03:08:50;98284.59;;;12.76;94.19
4398;BME280;2213;49.720;7.296;2023-06-04T03:11:20;98284.97;;;12.73;94.06
4398;BME280;2213;49.720;7.296;2023-06-04T03:13:50;98282.53;;;12.71;94.70
4398;BME280;2213;49.720;7.296;2023-06-04T03:16:20;98281.94;;;12.69;95.05
4398;BME280;2213;49.720;7.296;2023-06-04T03:18:48;98283.56;;;12.70;94.59
4398;BME280;2213;49.720;7.296;2023-06-04T03:21:18;98282.31;;;12.66;94.43
4398;BME280;2213;49.720;7.296;2023-06-04T03:23:47;98285.13;;;12.65;94.87
4398;BME280;2213;49.720;7.296;2023-06-04T03:26:17;98285.13;;;12.65;94.51
4398;BME280;2213;49.720;7.296;2023-06-04T03:28:48;98284.69;;;12.61;94.79
4398;BME280;2213;49.720;7.296;2023-06-04T03:31:18;98297.22;;;12.59;94.88
4398;BME280;2213;49.720;7.296;2023-06-04T03:33:46;98300.41;;;12.54;94.83
4398;BME280;2213;49.720;7.296;2023-06-04T03:36:15;98294.94;;;12.49;95.45
4398;BME280;2213;49.720;7.296;2023-06-04T03:38:45;98289.06;;;12.47;95.55
4398;BME280;2213;49.720;7.296;2023-06-04T03:41:14;98290.06;;;12.46;95.66
4398;BME280;2213;49.720;7.296;2023-06-04T03:43:44;98291.25;;;12.44;95.73
4398;BME280;2213;49.720;7.296;2023-06-04T03:46:15;98294.69;;;12.44;96.08
4398;BME280;2213;49.720;7.296;2023-06-04T03:48:44;98296.91;;;12.41;95.75
4398;BME280;2213;49.720;7.296;2023-06-04T03:51:12;98298.50;;;12.35;96.13
4398;BME280;2213;49.720;7.296;2023-06-04T03:53:41;98298.84;;;12.32;96.55
4398;BME280;2213;49.720;7.296;2023-06-04T03:56:10;98299.47;;;12.34;97.21
4398;BME280;2213;49.720;7.296;2023-06-04T03:58:41;98293.41;;;12.34;96.71
4398;BME280;2213;49.720;7.296;2023-06-04T04:01:10;98301.69;;;12.31;96.80
4398;BME280;2213;49.720;7.296;2023-06-04T04:03:41;98295.00;;;12.28;97.40
4398;BME280;2213;49.720;7.296;2023-06-04T04:06:10;98298.63;;;12.27;97.21
4398;BME280;2213;49.720;7.296;2023-06-04T04:08:40;98290.75;;;12.27;97.68
4398;BME280;2213;49.720;7.296;2023-06-04T04:11:11;98294.38;;;12.26;97.51
4398;BME280;2213;49.720;7.296;2023-06-04T04:13:41;98297.00;;;12.26;97.84
4398;BME280;2213;49.720;7.296;2023-06-04T04:16:10;98296.19;;;12.26;98.46
4398;BME280;2213;49.720;7.296;2023-06-04T04:18:42;98294.75;;;12.23;98.44
4398;BME280;2213;49.720;7.296;2023-06-04T04:21:11;98304.63;;;12.21;98.73
4398;BME280;2213;49.720;7.296;2023-06-04T04:23:40;98305.03;;;12.18;99.01
4398;BME280;2213;49.720;7.296;2023-06-04T04:26:09;98298.53;;;12.14;99.23
4398;BME280;2213;49.720;7.296;2023-06-04T04:28:39;98306.16;;;12.09;99.74
4398;BME280;2213;49.720;7.296;2023-06-04T04:31:08;98306.53;;;12.06;100.00
4398;BME280;2213;49.720;7.296;2023-06-04T04:33:37;98307.34;;;12.06;100.00
4398;BME280;2213;49.720;7.296;2023-06-04T04:36:08;98301.13;;;12.07;100.00
4398;BME280;2213;49.720;7.296;2023-06-04T04:38:40;98304.09;;;12.04;100.00
4398;BME280;2213;49.720;7.296;2023-06-04T04:41:09;98311.78;;;12.06;100.00
4398;BME280;2213;49.720;7.296;2023-06-04T04:43:38;98303.72;;;12.07;100.00
4398;BME280;2213;49.720;7.296;2023-06-04T04:46:09;98307.78;;;12.10;100.00
4398;BME280;2213;49.720;7.296;2023-06-04T04:48:38;98304.16;;;12.11;100.00
4398;BME280;2213;49.720;7.296;2023-06-04T04:51:09;98315.88;;;12.15;100.00
4398;BME280;2213;49.720;7.296;2023-06-04T04:53:38;98305.81;;;12.19;100.00
4398;BME280;2213;49.720;7.296;2023-06-04T04:56:07;98318.34;;;12.23;100.00
4398;BME280;2213;49.720;7.296;2023-06-04T04:58:35;98305.06;;;12.25;100.00
4398;BME280;2213;49.720;7.296;2023-06-04T05:01:04;98308.91;;;12.29;100.00
4398;BME280;2213;49.720;7.296;2023-06-04T05:03:33;98298.84;;;12.32;100.00
4398;BME280;2213;49.720;7.296;2023-06-04T05:06:02;98311.81;;;12.40;100.00
4398;BME280;2213;49.720;7.296;2023-06-04T05:08:33;98300.56;;;12.46;100.00
4398;BME280;2213;49.720;7.296;2023-06-04T05:11:01;98305.44;;;12.49;100.00
4398;BME280;2213;49.720;7.296;2023-06-04T05:13:30;98310.91;;;12.54;100.00
4398;BME280;2213;49.720;7.296;2023-06-04T05:15:59;98315.38;;;12.60;100.00
4398;BME280;2213;49.720;7.296;2023-06-04T05:18:36;98319.22;;;12.65;100.00
4398;BME280;2213;49.720;7.296;2023-06-04T05:21:10;98318.84;;;12.68;100.00
4398;BME280;2213;49.720;7.296;2023-06-04T05:23:43;98314.22;;;12.70;100.00
4398;BME280;2213;49.720;7.296;2023-06-04T05:26:18;98320.72;;;12.74;100.00
4398;BME280;2213;49.720;7.296;2023-06-04T05:28:51;98318.31;;;12.79;100.00
4398;BME280;2213;49.720;7.296;2023-06-04T05:31:27;98314.28;;;12.83;100.00
4398;BME280;2213;49.720;7.296;2023-06-04T05:34:00;98314.72;;;12.86;100.00
4398;BME280;2213;49.720;7.296;2023-06-04T05:36:34;98319.19;;;12.92;100.00
4398;BME280;2213;49.720;7.296;2023-06-04T05:39:17;98315.97;;;12.97;100.00
4398;BME280;2213;49.720;7.296;2023-06-04T05:41:46;98319.84;;;13.01;100.00
4398;BME280;2213;49.720;7.296;2023-06-04T05:44:15;98328.94;;;13.05;100.00
4398;BME280;2213;49.720;7.296;2023-06-04T05:46:45;98317.06;;;13.09;100.00
4398;BME280;2213;49.720;7.296;2023-06-04T05:49:21;98321.53;;;13.15;100.00
4398;BME280;2213;49.720;7.296;2023-06-04T05:51:52;98323.78;;;13.18;100.00
4398;BME280;2213;49.720;7.296;2023-06-04T05:54:24;98321.34;;;13.23;100.00
4398;BME280;2213;49.720;7.296;2023-06-04T05:56:54;98321.59;;;13.28;100.00
4398;BME280;2213;49.720;7.296;2023-06-04T05:59:23;98323.41;;;13.34;100.00
4398;BME280;2213;49.720;7.296;2023-06-04T06:01:54;98316.75;;;13.38;100.00
4398;BME280;2213;49.720;7.296;2023-06-04T06:04:23;98320.81;;;13.41;100.00
4398;BME280;2213;49.720;7.296;2023-06-04T06:06:52;98329.50;;;13.48;100.00
4398;BME280;2213;49.720;7.296;2023-06-04T06:09:21;98331.56;;;13.52;99.22
4398;BME280;2213;49.720;7.296;2023-06-04T06:11:51;98325.50;;;13.58;98.66
4398;BME280;2213;49.720;7.296;2023-06-04T06:14:21;98323.09;;;13.64;98.06
4398;BME280;2213;49.720;7.296;2023-06-04T06:16:50;98330.34;;;13.68;97.83
4398;BME280;2213;49.720;7.296;2023-06-04T06:19:20;98326.31;;;13.72;98.02
4398;BME280;2213;49.720;7.296;2023-06-04T06:21:49;98337.88;;;13.78;96.74
4398;BME280;2213;49.720;7.296;2023-06-04T06:24:18;98331.81;;;13.84;95.47
4398;BME280;2213;49.720;7.296;2023-06-04T06:26:46;98333.03;;;13.88;93.77
4398;BME280;2213;49.720;7.296;2023-06-04T06:29:19;98334.84;;;13.94;92.49
4398;BME280;2213;49.720;7.296;2023-06-04T06:31:48;98340.13;;;14.00;91.53
4398;BME280;2213;49.720;7.296;2023-06-04T06:34:18;98336.88;;;14.05;91.68
4398;BME280;2213;49.720;7.296;2023-06-04T06:36:47;98341.34;;;14.11;91.31
4398;BME280;2213;49.720;7.296;2023-06-04T06:39:18;98346.00;;;14.16;89.24
4398;BME280;2213;49.720;7.296;2023-06-04T06:41:51;98346.19;;;14.21;88.81
4398;BME280;2213;49.720;7.296;2023-06-04T06:44:27;98351.44;;;14.27;88.58
4398;BME280;2213;49.720;7.296;2023-06-04T06:46:56;98355.28;;;14.31;87.90
4398;BME280;2213;49.720;7.296;2023-06-04T06:49:24;98357.13;;;14.37;88.23
4398;BME280;2213;49.720;7.296;2023-06-04T06:51:53;98356.34;;;14.43;87.57
4398;BME280;2213;49.720;7.296;2023-06-04T06:54:22;98355.53;;;14.49;85.73
4398;BME280;2213;49.720;7.296;2023-06-04T06:56:52;98359.97;;;14.55;85.08
4398;BME280;2213;49.720;7.296;2023-06-04T06:59:21;98354.91;;;14.60;84.93
4398;BME280;2213;49.720;7.296;2023-06-04T07:01:51;98351.44;;;14.67;85.10
4398;BME280;2213;49.720;7.296;2023-06-04T07:04:20;98354.47;;;14.70;85.48
4398;BME280;2213;49.720;7.296;2023-06-04T07:06:49;98358.72;;;14.78;85.22
4398;BME280;2213;49.720;7.296;2023-06-04T07:09:19;98358.31;;;14.81;82.77
4398;BME280;2213;49.720;7.296;2023-06-04T07:11:47;98357.47;;;14.87;81.92
4398;BME280;2213;49.720;7.296;2023-06-04T07:14:16;98348.75;;;14.93;81.68
4398;BME280;2213;49.720;7.296;2023-06-04T07:16:46;98343.25;;;15.01;78.96
4398;BME280;2213;49.720;7.296;2023-06-04T07:19:16;98346.09;;;15.06;76.82
4398;BME280;2213;49.720;7.296;2023-06-04T07:21:45;98352.75;;;15.15;76.27
4398;BME280;2213;49.720;7.296;2023-06-04T07:24:14;98346.03;;;15.19;77.42
4398;BME280;2213;49.720;7.296;2023-06-04T07:26:43;98354.50;;;15.28;78.41
4398;BME280;2213;49.720;7.296;2023-06-04T07:29:12;98350.25;;;15.33;77.17
4398;BME280;2213;49.720;7.296;2023-06-04T07:31:41;98349.97;;;15.41;76.54
4398;BME280;2213;49.720;7.296;2023-06-04T07:34:10;98345.31;;;15.50;74.26
4398;BME280;2213;49.720;7.296;2023-06-04T07:36:40;98344.25;;;15.57;74.01
4398;BME280;2213;49.720;7.296;2023-06-04T07:39:08;98345.47;;;15.62;75.58
4398;BME280;2213;49.720;7.296;2023-06-04T07:41:37;98346.63;;;15.66;75.29
4398;BME280;2213;49.720;7.296;2023-06-04T07:44:06;98357.16;;;15.72;74.80
4398;BME280;2213;49.720;7.296;2023-06-04T07:46:35;98344.53;;;15.81;72.61
4398;BME280;2213;49.720;7.296;2023-06-04T07:49:03;98340.59;;;15.90;69.96
4398;BME280;2213;49.720;7.296;2023-06-04T07:51:32;98345.63;;;15.98;68.68
4398;BME280;2213;49.720;7.296;2023-06-04T07:54:03;98348.81;;;16.06;67.58
4398;BME280;2213;49.720;7.296;2023-06-04T07:56:31;98345.53;;;16.11;67.22
4398;BME280;2213;49.720;7.296;2023-06-04T07:59:00;98348.47;;;16.21;66.28
4398;BME280;2213;49.720;7.296;2023-06-04T08:01:29;98345.16;;;16.32;65.56
4398;BME280;2213;49.720;7.296;2023-06-04T08:03:57;98343.88;;;16.41;65.02
4398;BME280;2213;49.720;7.296;2023-06-04T08:06:27;98347.25;;;16.48;64.23
4398;BME280;2213;49.720;7.296;2023-06-04T08:08:56;98345.56;;;16.54;64.15
4398;BME280;2213;49.720;7.296;2023-06-04T08:11:26;98338.19;;;16.63;61.84
4398;BME280;2213;49.720;7.296;2023-06-04T08:13:54;98341.81;;;16.68;63.56
4398;BME280;2213;49.720;7.296;2023-06-04T08:16:23;98337.28;;;16.75;63.33
4398;BME280;2213;49.720;7.296;2023-06-04T08:18:52;98340.41;;;16.84;63.44
4398;BME280;2213;49.720;7.296;2023-06-04T08:21:26;98338.88;;;16.94;62.82
4398;BME280;2213;49.720;7.296;2023-06-04T08:23:55;98339.50;;;16.96;62.21
4398;BME280;2213;49.720;7.296;2023-06-04T08:26:26;98336.75;;;17.03;63.47
4398;BME280;2213;49.720;7.296;2023-06-04T08:28:55;98327.94;;;17.09;62.74
4398;BME280;2213;49.720;7.296;2023-06-04T08:31:24;98329.56;;;17.10;64.57
4398;BME280;2213;49.720;7.296;2023-06-04T08:33:54;98333.16;;;17.16;64.19
4398;BME280;2213;49.720;7.296;2023-06-04T08:36:22;98335.25;;;17.25;64.16
4398;BME280;2213;49.720;7.296;2023-06-04T08:38:52;98341.06;;;17.34;63.29
4398;BME280;2213;49.720;7.296;2023-06-04T08:41:29;98341.44;;;17.37;61.08
4398;BME280;2213;49.720;7.296;2023-06-04T08:43:58;98338.91;;;17.42;60.57
4398;BME280;2213;49.720;7.296;2023-06-04T08:46:33;98340.59;;;17.55;60.11
4398;BME280;2213;49.720;7.296;2023-06-04T08:49:07;98342.88;;;17.70;58.07
4398;BME280;2213;49.720;7.296;2023-06-04T08:51:37;98345.41;;;17.76;58.12
4398;BME280;2213;49.720;7.296;2023-06-04T08:54:07;98337.94;;;17.85;56.85
4398;BME280;2213;49.720;7.296;2023-06-04T08:56:38;98353.31;;;17.94;57.76
4398;BME280;2213;49.720;7.296;2023-06-04T08:59:09;98351.94;;;18.03;57.60
4398;BME280;2213;49.720;7.296;2023-06-04T09:01:38;98353.44;;;18.11;56.37
4398;BME280;2213;49.720;7.296;2023-06-04T09:04:09;98351.97;;;18.15;56.92
4398;BME280;2213;49.720;7.296;2023-06-04T09:06:41;98355.19;;;18.17;55.51
4398;BME280;2213;49.720;7.296;2023-06-04T09:09:13;98349.41;;;18.20;55.99
4398;BME280;2213;49.720;7.296;2023-06-04T09:11:51;98351.16;;;18.26;55.06
4398;BME280;2213;49.720;7.296;2023-06-04T09:14:20;98342.88;;;18.34;54.50
4398;BME280;2213;49.720;7.296;2023-06-04T09:16:52;98348.53;;;18.38;55.54
4398;BME280;2213;49.720;7.296;2023-06-04T09:19:22;98346.00;;;18.43;55.61
4398;BME280;2213;49.720;7.296;2023-06-04T09:21:52;98347.50;;;18.50;53.48
4398;BME280;2213;49.720;7.296;2023-06-04T09:24:39;98342.56;;;18.54;54.05
4398;BME280;2213;49.720;7.296;2023-06-04T09:27:14;98349.97;;;18.64;53.73
4398;BME280;2213;49.720;7.296;2023-06-04T09:29:49;98352.25;;;18.72;52.29
4398;BME280;2213;49.720;7.296;2023-06-04T09:32:22;98347.53;;;18.74;53.51
4398;BME280;2213;49.720;7.296;2023-06-04T09:34:51;98346.81;;;18.78;53.63
4398;BME280;2213;49.720;7.296;2023-06-04T09:37:20;98343.25;;;18.84;52.93
4398;BME280;2213;49.720;7.296;2023-06-04T09:39:53;98344.28;;;18.95;53.56
4398;BME280;2213;49.720;7.296;2023-06-04T09:42:24;98337.38;;;18.94;53.83
4398;BME280;2213;49.720;7.296;2023-06-04T09:44:53;98338.72;;;18.96;53.98
4398;BME280;2213;49.720;7.296;2023-06-04T09:47:21;98339.19;;;19.05;52.23
4398;BME280;2213;49.720;7.296;2023-06-04T09:49:50;98344.91;;;19.14;52.18
4398;BME280;2213;49.720;7.296;2023-06-04T09:52:20;98342.13;;;19.20;51.91
4398;BME280;2213;49.720;7.296;2023-06-04T09:54:49;98335.25;;;19.19;51.46
4398;BME280;2213;49.720;7.296;2023-06-04T09:57:18;98342.94;;;19.21;51.45
4398;BME280;2213;49.720;7.296;2023-06-04T09:59:50;98346.53;;;19.26;51.50
4398;BME280;2213;49.720;7.296;2023-06-04T10:02:20;98336.56;;;19.33;51.00
4398;BME280;2213;49.720;7.296;2023-06-04T10:04:54;98335.28;;;19.47;52.03
4398;BME280;2213;49.720;7.296;2023-06-04T10:07:24;98335.94;;;19.54;50.23
4398;BME280;2213;49.720;7.296;2023-06-04T10:09:54;98340.72;;;19.69;49.65
4398;BME280;2213;49.720;7.296;2023-06-04T10:12:30;98334.47;;;19.75;48.41
4398;BME280;2213;49.720;7.296;2023-06-04T10:15:05;98337.91;;;19.76;48.94
4398;BME280;2213;49.720;7.296;2023-06-04T10:17:37;98339.50;;;19.88;48.74
4398;BME280;2213;49.720;7.296;2023-06-04T10:20:08;98344.66;;;19.95;47.17
4398;BME280;2213;49.720;7.296;2023-06-04T10:22:39;98335.06;;;19.94;47.44
4398;BME280;2213;49.720;7.296;2023-06-04T10:25:09;98341.66;;;20.08;46.68
4398;BME280;2213;49.720;7.296;2023-06-04T10:27:39;98336.75;;;20.17;45.98
4398;BME280;2213;49.720;7.296;2023-06-04T10:30:10;98339.38;;;20.28;46.25
4398;BME280;2213;49.720;7.296;2023-06-04T10:32:40;98338.41;;;20.34;46.13
4398;BME280;2213;49.720;7.296;2023-06-04T10:35:09;98327.13;;;20.27;45.72
4398;BME280;2213;49.720;7.296;2023-06-04T10:37:39;98329.56;;;20.29;43.22
4398;BME280;2213;49.720;7.296;2023-06-04T10:40:09;98352.09;;;20.43;43.98
4398;BME280;2213;49.720;7.296;2023-06-04T10:42:40;98341.06;;;20.51;43.36
4398;BME280;2213;49.720;7.296;2023-06-04T10:45:11;98333.41;;;20.54;45.16
4398;BME280;2213;49.720;7.296;2023-06-04T10:47:40;98335.63;;;20.63;44.71
4398;BME280;2213;49.720;7.296;2023-06-04T10:50:13;98337.88;;;20.71;45.29
4398;BME280;2213;49.720;7.296;2023-06-04T10:52:52;98350.44;;;20.75;44.55
4398;BME280;2213;49.720;7.296;2023-06-04T10:55:21;98340.13;;;20.79;42.66
4398;BME280;2213;49.720;7.296;2023-06-04T10:57:54;98334.31;;;20.82;42.80
4398;BME280;2213;49.720;7.296;2023-06-04T11:00:35;98340.75;;;20.86;43.67
4398;BME280;2213;49.720;7.296;2023-06-04T11:03:05;98349.09;;;20.94;43.61
4398;BME280;2213;49.720;7.296;2023-06-04T11:05:37;98347.31;;;21.00;41.54
4398;BME280;2213;49.720;7.296;2023-06-04T11:08:07;98339.59;;;20.98;41.32
4398;BME280;2213;49.720;7.296;2023-06-04T11:10:39;98337.25;;;21.02;42.12
4398;BME280;2213;49.720;7.296;2023-06-04T11:13:09;98360.19;;;21.08;41.87
4398;BME280;2213;49.720;7.296;2023-06-04T11:15:40;98347.53;;;21.15;41.32
4398;BME280;2213;49.720;7.296;2023-06-04T11:18:14;98360.16;;;21.25;40.53
4398;BME280;2213;49.720;7.296;2023-06-04T11:20:45;98342.91;;;21.27;40.14
4398;BME280;2213;49.720;7.296;2023-06-04T11:23:16;98346.44;;;21.33;40.60
4398;BME280;2213;49.720;7.296;2023-06-04T11:25:45;98352.78;;;21.32;40.38
4398;BME280;2213;49.720;7.296;2023-06-04T11:28:17;98334.25;;;21.37;40.74
4398;BME280;2213;49.720;7.296;2023-06-04T11:30:57;98339.56;;;21.37;40.11
4398;BME280;2213;49.720;7.296;2023-06-04T11:33:26;98334.28;;;21.42;40.38
4398;BME280;2213;49.720;7.296;2023-06-04T11:35:56;98335.09;;;21.42;40.46
4398;BME280;2213;49.720;7.296;2023-06-04T11:38:24;98338.63;;;21.48;40.27
4398;BME280;2213;49.720;7.296;2023-06-04T11:40:58;98333.31;;;21.48;41.07
4398;BME280;2213;49.720;7.296;2023-06-04T11:43:28;98342.13;;;21.53;39.86
4398;BME280;2213;49.720;7.296;2023-06-04T11:45:59;98329.94;;;21.57;39.78
4398;BME280;2213;49.720;7.296;2023-06-04T11:48:29;98337.19;;;21.62;40.11
4398;BME280;2213;49.720;7.296;2023-06-04T11:51:05;98323.69;;;21.69;40.51
4398;BME280;2213;49.720;7.296;2023-06-04T11:53:37;98321.03;;;21.74;40.01
4398;BME280;2213;49.720;7.296;2023-06-04T11:56:05;98320.00;;;21.75;40.91
4398;BME280;2213;49.720;7.296;2023-06-04T11:58:35;98331.25;;;21.82;41.01
4398;BME280;2213;49.720;7.296;2023-06-04T12:01:06;98324.38;;;21.86;40.93
4398;BME280;2213;49.720;7.296;2023-06-04T12:03:36;98316.13;;;21.87;40.54
4398;BME280;2213;49.720;7.296;2023-06-04T12:06:13;98310.31;;;21.90;40.58
4398;BME280;2213;49.720;7.296;2023-06-04T12:08:48;98315.44;;;21.97;40.75
4398;BME280;2213;49.720;7.296;2023-06-04T12:11:30;98315.53;;;22.07;40.28
4398;BME280;2213;49.720;7.296;2023-06-04T12:14:03;98316.91;;;22.15;40.47
4398;BME280;2213;49.720;7.296;2023-06-04T12:16:34;98312.97;;;22.22;41.18
4398;BME280;2213;49.720;7.296;2023-06-04T12:19:09;98326.88;;;22.24;39.85
4398;BME280;2213;49.720;7.296;2023-06-04T12:21:38;98317.25;;;22.23;39.94
4398;BME280;2213;49.720;7.296;2023-06-04T12:24:10;98313.78;;;22.23;40.63
4398;BME280;2213;49.720;7.296;2023-06-04T12:26:41;98319.66;;;22.25;41.18
4398;BME280;2213;49.720;7.296;2023-06-04T12:29:16;98319.41;;;22.26;41.37
4398;BME280;2213;49.720;7.296;2023-06-04T12:31:48;98306.13;;;22.31;41.15
4398;BME280;2213;49.720;7.296;2023-06-04T12:34:17;98313.63;;;22.39;40.69
4398;BME280;2213;49.720;7.296;2023-06-04T12:36:46;98311.25;;;22.43;41.36
4398;BME280;2213;49.720;7.296;2023-06-04T12:39:15;98314.47;;;22.45;41.17
4398;BME280;2213;49.720;7.296;2023-06-04T12:41:46;98310.50;;;22.47;40.03
4398;BME280;2213;49.720;7.296;2023-06-04T12:44:15;98305.16;;;22.47;40.75
4398;BME280;2213;49.720;7.296;2023-06-04T12:46:49;98319.03;;;22.49;41.04
4398;BME280;2213;49.720;7.296;2023-06-04T12:49:19;98319.06;;;22.54;40.63
4398;BME280;2213;49.720;7.296;2023-06-04T12:51:50;98308.94;;;22.51;39.24
4398;BME280;2213;49.720;7.296;2023-06-04T12:54:18;98304.13;;;22.53;39.65
4398;BME280;2213;49.720;7.296;2023-06-04T12:56:50;98306.28;;;22.56;38.98
4398;BME280;2213;49.720;7.296;2023-06-04T12:59:19;98305.75;;;22.59;39.88
4398;BME280;2213;49.720;7.296;2023-06-04T13:01:49;98301.50;;;22.58;40.01
4398;BME280;2213;49.720;7.296;2023-06-04T13:04:18;98301.78;;;22.62;40.13
4398;BME280;2213;49.720;7.296;2023-06-04T13:06:46;98301.88;;;22.72;39.58
4398;BME280;2213;49.720;7.296;2023-06-04T13:09:15;98296.28;;;22.74;39.48
4398;BME280;2213;49.720;7.296;2023-06-04T13:11:45;98296.59;;;22.82;38.86
4398;BME280;2213;49.720;7.296;2023-06-04T13:14:15;98300.06;;;22.88;38.71
4398;BME280;2213;49.720;7.296;2023-06-04T13:16:44;98301.44;;;22.95;39.22
4398;BME280;2213;49.720;7.296;2023-06-04T13:19:14;98300.13;;;22.98;38.64
4398;BME280;2213;49.720;7.296;2023-06-04T13:21:43;98307.63;;;23.01;38.51
4398;BME280;2213;49.720;7.296;2023-06-04T13:24:12;98298.81;;;23.00;38.42
4398;BME280;2213;49.720;7.296;2023-06-04T13:26:41;98292.19;;;23.08;38.83
4398;BME280;2213;49.720;7.296;2023-06-04T13:29:10;98287.13;;;23.17;37.80
4398;BME280;2213;49.720;7.296;2023-06-04T13:31:39;98289.56;;;23.18;37.12
4398;BME280;2213;49.720;7.296;2023-06-04T13:34:08;98300.50;;;23.22;37.50
4398;BME280;2213;49.720;7.296;2023-06-04T13:36:54;98293.81;;;23.29;38.10